createdAt,value
2018-11-26T00:04:05.971Z,5.43
2018-11-26T00:09:09.161Z,5.46
2018-11-26T00:14:12.370Z,5.52
2018-11-26T00:19:15.571Z,5.53
2018-11-26T00:24:18.712Z,5.75
2018-11-26T00:29:21.876Z,5.75
2018-11-26T00:34:25.025Z,5.68
2018-11-26T00:39:28.191Z,5.69
2018-11-26T00:44:31.360Z,5.73
2018-11-26T00:49:34.548Z,5.74
2018-11-26T00:54:37.716Z,5.75
2018-11-26T00:59:40.887Z,5.86
2018-11-26T01:04:44.056Z,5.83
2018-11-26T01:09:47.211Z,5.79
2018-11-26T01:14:50.410Z,5.90
2018-11-26T01:19:53.574Z,5.82
2018-11-26T01:24:56.751Z,5.93
2018-11-26T01:29:59.915Z,5.96
2018-11-26T01:35:03.179Z,5.91
2018-11-26T01:40:29.704Z,5.94
2018-11-26T01:45:32.864Z,6.08
2018-11-26T01:50:35.991Z,5.85
2018-11-26T01:55:39.138Z,5.82
2018-11-26T02:00:42.343Z,5.71
2018-11-26T02:05:45.552Z,5.79
2018-11-26T02:10:48.739Z,5.85
2018-11-26T02:15:51.940Z,5.86
2018-11-26T02:20:55.071Z,5.82
2018-11-26T02:25:58.184Z,5.90
2018-11-26T02:31:01.328Z,5.91
2018-11-26T02:36:05.051Z,5.90
2018-11-26T02:41:08.187Z,5.81
2018-11-26T02:46:11.334Z,5.82
2018-11-26T02:51:14.454Z,5.83
2018-11-26T02:56:17.644Z,5.82
2018-11-26T03:01:20.763Z,5.77
2018-11-26T03:06:23.896Z,5.67
2018-11-26T03:11:27.091Z,5.71
2018-11-26T03:16:30.230Z,5.62
2018-11-26T03:21:33.364Z,5.60
2018-11-26T03:26:36.491Z,5.63
2018-11-26T03:31:39.627Z,5.64
2018-11-26T03:36:42.761Z,5.65
2018-11-26T03:41:46.663Z,5.60
2018-11-26T03:46:49.783Z,5.61
2018-11-26T03:51:52.996Z,5.60
2018-11-26T03:56:56.131Z,5.55
2018-11-26T04:01:59.344Z,5.56
2018-11-26T04:07:02.528Z,5.64
2018-11-26T04:12:06.832Z,5.63
2018-11-26T04:17:10.010Z,5.64
2018-11-26T04:22:13.215Z,5.67
2018-11-26T04:27:16.352Z,5.68
2018-11-26T04:32:19.534Z,5.66
2018-11-26T04:37:22.663Z,5.57
2018-11-26T04:42:25.843Z,5.40
2018-11-26T04:47:29.016Z,5.24
2018-11-26T04:52:32.165Z,5.33
2018-11-26T04:57:35.583Z,5.08
2018-11-26T05:02:38.696Z,5.11
2018-11-26T05:07:41.884Z,5.03
2018-11-26T05:12:45.060Z,5.11
2018-11-26T05:17:48.231Z,4.92
2018-11-26T05:22:51.353Z,4.95
2018-11-26T05:27:54.482Z,4.94
2018-11-26T05:32:57.633Z,4.95
2018-11-26T05:38:00.774Z,4.88
2018-11-26T05:43:03.923Z,5.01
2018-11-26T05:48:07.187Z,4.95
2018-11-26T05:53:10.352Z,5.00
2018-11-26T05:58:13.471Z,4.97
2018-11-26T06:03:16.604Z,4.86
2018-11-26T06:08:20.351Z,4.89
2018-11-26T06:13:23.543Z,4.95
2018-11-26T06:18:26.684Z,5.11
2018-11-26T06:23:29.852Z,4.97
2018-11-26T06:28:32.996Z,4.99
2018-11-26T06:33:36.124Z,4.99
2018-11-26T06:38:39.266Z,5.02
2018-11-26T06:43:42.464Z,4.91
2018-11-26T06:48:45.680Z,4.99
2018-11-26T06:53:48.835Z,5.12
2018-11-26T06:58:51.991Z,4.92
2018-11-26T07:03:55.140Z,5.03
2018-11-26T07:08:58.286Z,5.10
2018-11-26T07:14:01.495Z,4.94
2018-11-26T07:19:04.931Z,4.96
2018-11-26T07:24:08.153Z,5.02
2018-11-26T07:29:11.283Z,4.91
2018-11-26T07:34:14.423Z,4.97
2018-11-26T07:39:17.597Z,5.05
2018-11-26T07:44:20.767Z,5.11
2018-11-26T07:49:23.921Z,5.19
2018-11-26T07:54:27.056Z,5.30
2018-11-26T07:59:30.192Z,5.14
2018-11-26T08:04:33.349Z,5.16
2018-11-26T08:09:36.548Z,5.09
2018-11-26T08:14:39.756Z,5.12
2018-11-26T08:19:42.936Z,5.12
2018-11-26T08:24:46.093Z,5.10
2018-11-26T08:29:49.281Z,5.19
2018-11-26T08:34:52.535Z,5.24
2018-11-26T08:40:00.293Z,5.23
2018-11-26T08:45:05.876Z,5.27
2018-11-26T08:50:09.683Z,5.34
2018-11-26T08:55:12.932Z,5.37
2018-11-26T09:00:16.157Z,5.25
2018-11-26T09:05:26.676Z,5.26
2018-11-26T09:10:29.906Z,5.20
2018-11-26T09:15:33.117Z,5.37
2018-11-26T09:20:36.342Z,5.51
2018-11-26T09:25:39.519Z,5.58
2018-11-26T09:30:42.949Z,5.47
2018-11-26T09:35:46.161Z,5.57
2018-11-26T09:40:49.330Z,5.58
2018-11-26T09:45:52.518Z,5.81
2018-11-26T09:50:55.680Z,5.74
2018-11-26T09:55:58.868Z,6.05
2018-11-26T10:01:02.187Z,5.97
2018-11-26T10:06:05.792Z,5.99
2018-11-26T10:11:08.990Z,5.96
2018-11-26T10:16:12.230Z,5.84
2018-11-26T10:21:15.488Z,5.83
2018-11-26T10:26:18.687Z,5.99
2018-11-26T10:31:21.876Z,6.04
2018-11-26T10:36:25.057Z,6.06
2018-11-26T10:41:28.241Z,6.30
2018-11-26T10:46:31.436Z,6.24
2018-11-26T10:51:34.662Z,6.24
2018-11-26T10:56:37.845Z,6.12
2018-11-26T11:01:45.913Z,6.15
2018-11-26T11:06:51.928Z,6.13
2018-11-26T11:11:52.418Z,6.10
2018-11-26T11:16:55.652Z,5.99
2018-11-26T11:21:58.856Z,6.15
2018-11-26T11:27:02.081Z,6.00
2018-11-26T11:32:05.269Z,5.94
2018-11-26T11:37:08.470Z,5.91
2018-11-26T11:42:11.701Z,5.76
2018-11-26T11:47:14.946Z,5.59
2018-11-26T11:52:18.143Z,5.34
2018-11-26T11:57:21.406Z,5.47
2018-11-26T12:02:24.713Z,5.49
2018-11-26T12:07:27.945Z,5.69
2018-11-26T12:12:31.204Z,5.69
2018-11-26T12:17:34.441Z,5.70
2018-11-26T12:22:37.674Z,5.82
2018-11-26T12:27:41.044Z,5.90
2018-11-26T12:32:44.324Z,5.93
2018-11-26T12:37:47.562Z,6.00
2018-11-26T12:42:55.675Z,5.94
2018-11-26T12:47:59.050Z,6.00
2018-11-26T12:53:02.289Z,5.93
2018-11-26T12:58:06.903Z,5.98
2018-11-26T13:03:13.456Z,5.97
2018-11-26T13:08:17.043Z,5.95
2018-11-26T13:13:19.966Z,5.87
2018-11-26T13:18:23.376Z,5.92
2018-11-26T13:23:26.580Z,5.80
2018-11-26T13:28:29.795Z,5.63
2018-11-26T13:33:33.047Z,5.59
2018-11-26T13:38:36.273Z,5.70
2018-11-26T13:43:39.481Z,5.73
2018-11-26T13:48:42.658Z,5.69
2018-11-26T13:53:45.900Z,5.62
2018-11-26T13:58:49.152Z,5.63
2018-11-26T14:03:52.472Z,5.50
2018-11-26T14:08:55.714Z,5.55
2018-11-26T14:13:58.952Z,5.48
2018-11-26T14:19:02.172Z,5.41
2018-11-26T14:24:05.946Z,5.25
2018-11-26T14:29:09.168Z,5.25
2018-11-26T14:34:12.316Z,5.14
2018-11-26T14:39:15.505Z,5.14
2018-11-26T14:44:18.726Z,5.19
2018-11-26T14:49:21.968Z,5.12
2018-11-26T14:54:25.185Z,5.08
2018-11-26T14:59:28.434Z,5.00
2018-11-26T15:04:31.650Z,4.95
2018-11-26T15:09:34.889Z,4.99
2018-11-26T15:14:38.222Z,5.02
2018-11-26T15:19:41.473Z,4.89
2018-11-26T15:24:44.785Z,4.83
2018-11-26T15:29:47.973Z,4.68
2018-11-26T15:34:51.227Z,4.74
2018-11-26T15:39:54.434Z,4.73
2018-11-26T15:44:57.773Z,4.57
2018-11-26T15:50:01.355Z,4.57
2018-11-26T15:55:05.024Z,4.55
2018-11-26T16:00:13.105Z,4.26
2018-11-26T16:05:22.197Z,4.22
2018-11-26T16:10:25.501Z,4.21
2018-11-26T16:15:35.256Z,4.18
2018-11-26T16:20:38.473Z,4.30
2018-11-26T16:25:46.590Z,4.35
2018-11-26T16:30:49.847Z,4.45
2018-11-26T16:35:53.090Z,4.24
2018-11-26T16:40:56.366Z,4.27
2018-11-26T16:45:59.584Z,4.32
2018-11-26T16:51:02.782Z,4.33
2018-11-26T16:56:06.057Z,4.45
2018-11-26T17:01:09.271Z,4.51
2018-11-26T17:06:12.479Z,4.24
2018-11-26T17:11:15.802Z,4.32
2018-11-26T17:16:19.115Z,4.27
2018-11-26T17:21:22.342Z,4.34
2018-11-26T17:26:25.649Z,4.34
2018-11-26T17:31:28.873Z,4.29
2018-11-26T17:36:32.102Z,4.26
2018-11-26T17:41:35.321Z,4.35
2018-11-26T17:46:38.652Z,4.33
2018-11-26T17:51:41.880Z,4.36
2018-11-26T17:56:45.125Z,4.37
2018-11-26T18:01:48.463Z,4.44
2018-11-26T18:06:51.878Z,4.43
2018-11-26T18:11:55.119Z,4.35
2018-11-26T18:16:58.361Z,4.35
2018-11-26T18:22:01.674Z,4.39
2018-11-26T18:27:07.265Z,4.39
2018-11-26T18:32:10.669Z,4.39
2018-11-26T18:37:13.894Z,4.40
2018-11-26T18:42:17.144Z,4.43
2018-11-26T18:47:23.515Z,4.43
2018-11-26T18:52:26.808Z,4.49
2018-11-26T18:57:30.075Z,4.49
2018-11-26T19:02:33.366Z,4.53
2018-11-26T19:07:36.638Z,4.54
2018-11-26T19:12:40.148Z,4.58
2018-11-26T19:17:43.390Z,4.58
2018-11-26T19:22:46.790Z,4.55
2018-11-26T19:27:50.083Z,4.61
2018-11-26T19:32:53.356Z,4.60
2018-11-26T19:37:56.625Z,4.57
2018-11-26T19:42:59.986Z,4.55
2018-11-26T19:48:03.321Z,4.58
2018-11-26T19:53:10.001Z,4.59
2018-11-26T19:58:13.413Z,4.61
2018-11-26T20:03:24.634Z,4.58
2018-11-26T20:08:27.953Z,4.57
2018-11-26T20:13:31.307Z,4.56
2018-11-26T20:18:34.693Z,4.57
2018-11-26T20:23:38.773Z,4.53
2018-11-26T20:28:42.108Z,4.51
2018-11-26T20:33:45.471Z,4.53
2018-11-26T20:38:48.767Z,4.53
2018-11-26T20:43:52.054Z,4.54
2018-11-26T20:48:55.292Z,4.59
2018-11-26T20:53:58.552Z,4.59
2018-11-26T20:59:01.801Z,4.55
2018-11-26T21:04:05.442Z,4.59
2018-11-26T21:09:09.038Z,4.63
2018-11-26T21:14:12.277Z,4.63
2018-11-26T21:19:15.562Z,4.60
2018-11-26T21:24:18.814Z,4.56
2018-11-26T21:29:22.083Z,4.59
2018-11-26T21:34:25.344Z,4.53
2018-11-26T21:39:28.571Z,4.49
2018-11-26T21:44:31.865Z,4.49
2018-11-26T21:49:35.106Z,4.52
2018-11-26T21:54:38.307Z,4.53
2018-11-26T21:59:41.536Z,4.58
2018-11-26T22:04:44.775Z,4.58
2018-11-26T22:09:48.045Z,4.58
2018-11-26T22:14:51.403Z,4.54
2018-11-26T22:19:54.631Z,4.58
2018-11-26T22:24:57.834Z,4.59
2018-11-26T22:30:01.110Z,4.56
2018-11-26T22:35:05.073Z,4.54
2018-11-26T22:40:11.554Z,4.53
2018-11-26T22:45:17.340Z,4.57
2018-11-26T22:50:20.573Z,4.50
2018-11-26T22:55:23.777Z,4.49
2018-11-26T23:00:34.969Z,4.48
2018-11-26T23:05:38.182Z,4.49
2018-11-26T23:10:41.402Z,4.46
2018-11-26T23:15:44.665Z,4.61
2018-11-26T23:20:47.857Z,4.42
2018-11-26T23:25:52.954Z,4.40
2018-11-26T23:30:57.911Z,4.36
2018-11-26T23:36:03.828Z,4.34
2018-11-26T23:41:07.288Z,4.46
2018-11-26T23:46:10.772Z,4.40
2018-11-26T23:51:13.962Z,4.30
2018-11-26T23:56:17.133Z,4.29
